Time;durP1;ratioP1;P1;durP2;ratioP2;P2;SDS_P1;SDS_P2;PMS_P1;PMS_P2;Temp;Humidity;BMP_temperature;BMP_pressure;BME280_temperature;BME280_humidity;BME280_pressure;Samples;Min_cycle;Max_cycle;Signal;HPM_P1;HPM_P2
2022/06/20 00:01:21;;;;;;;0.40;0.40;;;17.90;99.90;;;;;;5050441;28;20686;-66
2022/06/20 00:04:15;;;;;;;0.40;0.40;;;17.80;99.90;;;;;;5051268;28;20658;-67
2022/06/20 00:07:11;;;;;;;0.40;0.40;;;17.70;99.90;;;;;;5051308;28;20213;-68
2022/06/20 00:09:59;;;;;;;0.40;0.40;;;17.60;99.90;;;;;;5051106;28;20212;-68
2022/06/20 00:12:48;;;;;;;0.40;0.40;;;17.50;99.90;;;;;;5050480;28;20201;-68
2022/06/20 00:15:37;;;;;;;0.40;0.40;;;17.40;99.90;;;;;;5050905;28;20224;-67
2022/06/20 00:18:26;;;;;;;0.40;0.40;;;17.40;99.90;;;;;;5051045;28;20214;-67
2022/06/20 00:21:17;;;;;;;0.40;0.40;;;17.40;99.90;;;;;;5050563;28;20782;-67
2022/06/20 00:24:06;;;;;;;0.40;0.40;;;17.30;99.90;;;;;;5050887;28;20570;-67
2022/06/20 00:26:55;;;;;;;0.40;0.40;;;17.20;99.90;;;;;;5051049;28;20217;-67
2022/06/20 00:29:44;;;;;;;0.50;0.50;;;17.00;99.90;;;;;;5051504;28;20615;-67
2022/06/20 00:32:34;;;;;;;0.50;0.50;;;17.00;99.90;;;;;;5051518;28;20197;-67
2022/06/20 00:35:22;;;;;;;0.60;0.60;;;16.90;99.90;;;;;;5051376;28;20194;-67
2022/06/20 00:38:17;;;;;;;0.50;0.50;;;16.80;99.90;;;;;;5051938;28;20236;-68
2022/06/20 00:41:08;;;;;;;0.40;0.40;;;16.70;99.90;;;;;;5050540;28;20197;-67
2022/06/20 00:43:57;;;;;;;0.50;0.50;;;16.80;99.90;;;;;;5055475;28;20212;-69
2022/06/20 00:46:51;;;;;;;0.50;0.50;;;16.90;99.90;;;;;;5056094;28;20235;-68
2022/06/20 00:49:47;;;;;;;0.40;0.40;;;16.90;99.90;;;;;;5043946;28;20206;-67
2022/06/20 00:52:40;;;;;;;0.40;0.40;;;16.90;99.90;;;;;;5035985;28;20206;-67
2022/06/20 00:55:34;;;;;;;0.40;0.40;;;16.70;99.90;;;;;;5035793;28;20206;-67
2022/06/20 00:58:31;;;;;;;0.40;0.40;;;16.70;99.90;;;;;;5054354;28;20213;-67
2022/06/20 01:01:25;;;;;;;0.40;0.40;;;16.80;99.90;;;;;;5054235;28;20581;-68
2022/06/20 01:04:19;;;;;;;0.40;0.40;;;16.90;99.90;;;;;;5054962;28;20205;-67
2022/06/20 01:07:13;;;;;;;0.40;0.40;;;16.90;99.90;;;;;;5054098;28;20244;-67
2022/06/20 01:10:03;;;;;;;0.40;0.40;;;17.00;99.90;;;;;;5053580;28;20627;-68
2022/06/20 01:12:57;;;;;;;0.40;0.40;;;17.00;99.90;;;;;;5054228;28;20201;-67
2022/06/20 01:15:48;;;;;;;0.40;0.40;;;16.90;99.90;;;;;;5054688;28;20205;-66
2022/06/20 01:18:36;;;;;;;0.40;0.40;;;16.70;99.90;;;;;;5054258;28;20197;-67
2022/06/20 01:21:30;;;;;;;0.50;0.50;;;16.70;99.90;;;;;;5054507;28;20605;-68
2022/06/20 01:24:27;;;;;;;0.40;0.40;;;16.50;99.90;;;;;;5054966;28;20247;-66
2022/06/20 01:27:22;;;;;;;0.50;0.50;;;16.50;99.90;;;;;;5054179;28;20710;-68
2022/06/20 01:30:11;;;;;;;0.43;0.43;;;16.40;99.90;;;;;;5054413;28;20204;-66
2022/06/20 01:33:00;;;;;;;0.40;0.40;;;16.30;99.90;;;;;;5053974;28;20620;-68
2022/06/20 01:39:07;;;;;;;0.43;0.43;;;15.80;99.90;;;;;;5014008;28;20624;-68
2022/06/20 01:45:57;;;;;;;0.40;0.40;;;15.80;99.90;;;;;;5053954;28;20193;-68
2022/06/20 01:48:18;;;;;;;0.40;0.40;;;15.70;99.90;;;;;;5053151;28;20229;-67
2022/06/20 01:51:13;;;;;;;0.60;0.60;;;15.70;99.90;;;;;;5053202;28;20201;-67
2022/06/20 01:54:02;;;;;;;0.40;0.40;;;15.80;99.90;;;;;;5053137;28;20251;-67
2022/06/20 01:59:45;;;;;;;0.40;0.40;;;15.90;99.90;;;;;;5052196;28;20673;-68
2022/06/20 02:02:40;;;;;;;0.40;0.40;;;15.90;99.90;;;;;;5034672;28;20202;-68
2022/06/20 02:05:31;;;;;;;0.47;0.47;;;15.90;99.90;;;;;;5034505;28;20252;-67
2022/06/20 02:08:21;;;;;;;0.50;0.50;;;15.90;99.90;;;;;;5034983;28;20235;-67
2022/06/20 02:11:12;;;;;;;0.40;0.40;;;16.00;99.90;;;;;;5033644;28;20202;-67
2022/06/20 02:14:08;;;;;;;0.40;0.40;;;15.90;99.90;;;;;;5034941;28;20218;-67
2022/06/20 02:16:59;;;;;;;0.40;0.40;;;15.90;99.90;;;;;;5034468;28;20218;-67
2022/06/20 02:19:54;;;;;;;0.40;0.40;;;16.10;99.90;;;;;;5034260;28;20275;-66
2022/06/20 02:22:43;;;;;;;0.40;0.40;;;16.10;99.90;;;;;;5035149;28;20205;-68
2022/06/20 02:25:35;;;;;;;0.40;0.40;;;16.20;99.90;;;;;;5033310;28;20206;-68
2022/06/20 02:28:29;;;;;;;0.40;0.40;;;16.20;99.90;;;;;;5033370;28;20295;-67
2022/06/20 02:31:18;;;;;;;0.40;0.40;;;16.30;99.90;;;;;;5034113;28;20209;-68
2022/06/20 02:34:06;;;;;;;0.40;0.40;;;16.30;99.90;;;;;;5034570;28;20285;-67
2022/06/20 02:36:58;;;;;;;0.40;0.40;;;16.20;99.90;;;;;;5033998;28;20221;-67
2022/06/20 02:39:49;;;;;;;0.40;0.40;;;16.20;99.90;;;;;;5033655;28;20252;-67
2022/06/20 02:42:44;;;;;;;0.40;0.40;;;16.20;99.90;;;;;;5034678;28;20201;-67
2022/06/20 02:45:34;;;;;;;0.40;0.40;;;16.20;99.90;;;;;;5032953;28;20604;-68
2022/06/20 02:48:25;;;;;;;0.40;0.40;;;16.10;99.90;;;;;;5033502;28;20348;-68
2022/06/20 02:51:17;;;;;;;0.40;0.40;;;16.10;99.90;;;;;;5032728;28;20336;-68
2022/06/20 02:54:10;;;;;;;0.40;0.40;;;16.10;99.90;;;;;;5034257;28;20674;-67
2022/06/20 02:57:03;;;;;;;0.40;0.40;;;16.20;99.90;;;;;;5040872;28;20730;-67
2022/06/20 02:59:54;;;;;;;0.40;0.40;;;16.10;99.90;;;;;;5052300;28;20763;-67
2022/06/20 03:02:45;;;;;;;0.40;0.40;;;16.20;99.90;;;;;;5052608;28;20204;-67
2022/06/20 03:05:33;;;;;;;0.40;0.40;;;16.20;99.90;;;;;;5052777;28;20197;-68
2022/06/20 03:08:22;;;;;;;0.40;0.40;;;16.20;99.90;;;;;;5053101;28;20338;-67
2022/06/20 03:11:12;;;;;;;0.40;0.40;;;16.10;99.90;;;;;;5052831;28;20267;-66
2022/06/20 03:14:06;;;;;;;0.40;0.40;;;16.30;99.90;;;;;;5053576;28;20542;-68
2022/06/20 03:16:55;;;;;;;0.50;0.50;;;16.20;99.90;;;;;;5053224;28;20706;-67
2022/06/20 03:19:47;;;;;;;0.40;0.40;;;16.10;99.90;;;;;;5052703;28;20202;-67
2022/06/20 03:22:41;;;;;;;0.40;0.40;;;16.20;99.90;;;;;;5051393;28;20201;-67
2022/06/20 03:25:29;;;;;;;0.40;0.40;;;16.30;99.90;;;;;;5052269;28;20677;-68
2022/06/20 03:28:21;;;;;;;0.40;0.40;;;16.30;99.90;;;;;;5051811;28;20221;-68
2022/06/20 03:31:26;;;;;;;0.40;0.40;;;16.30;99.90;;;;;;5054761;28;20200;-68
2022/06/20 03:34:14;;;;;;;0.40;0.40;;;16.30;99.90;;;;;;5053156;28;20512;-68
2022/06/20 03:37:06;;;;;;;0.40;0.40;;;16.30;99.90;;;;;;5051962;28;20221;-67
2022/06/20 03:39:55;;;;;;;0.50;0.50;;;16.30;99.90;;;;;;5051795;28;20196;-67
2022/06/20 03:42:43;;;;;;;0.40;0.40;;;16.30;99.90;;;;;;5052392;28;20193;-68
2022/06/20 03:45:38;;;;;;;0.40;0.40;;;16.30;99.90;;;;;;5052656;28;20724;-68
2022/06/20 03:48:32;;;;;;;0.40;0.40;;;16.30;99.90;;;;;;5052053;28;20277;-67
2022/06/20 03:51:22;;;;;;;0.40;0.40;;;16.40;99.90;;;;;;5051317;28;20201;-68
2022/06/20 03:54:20;;;;;;;0.40;0.40;;;16.40;99.90;;;;;;5051655;28;20206;-68
2022/06/20 03:57:12;;;;;;;0.50;0.50;;;16.40;99.90;;;;;;5051435;28;20243;-67
2022/06/20 04:00:06;;;;;;;0.40;0.40;;;16.60;99.90;;;;;;5052670;28;20660;-67
2022/06/20 04:02:59;;;;;;;0.40;0.40;;;16.40;99.90;;;;;;5051402;28;20193;-68
2022/06/20 04:05:53;;;;;;;0.40;0.40;;;16.50;99.90;;;;;;5052502;28;20221;-68
2022/06/20 04:11:58;;;;;;;0.50;0.50;;;16.60;99.90;;;;;;5051868;28;20193;-68
2022/06/20 04:14:55;;;;;;;0.50;0.50;;;16.80;99.90;;;;;;5031119;28;20202;-68
2022/06/20 04:21:06;;;;;;;0.40;0.40;;;17.20;99.90;;;;;;5034896;28;20220;-69
2022/06/20 04:23:59;;;;;;;0.40;0.40;;;17.40;99.90;;;;;;5035325;28;20234;-71
2022/06/20 04:26:53;;;;;;;0.40;0.40;;;17.50;99.90;;;;;;5035594;28;20229;-70
2022/06/20 04:29:47;;;;;;;0.40;0.40;;;17.60;99.90;;;;;;5033722;28;20214;-71
2022/06/20 04:32:40;;;;;;;0.40;0.40;;;17.70;99.90;;;;;;5034480;28;20209;-70
2022/06/20 04:35:32;;;;;;;0.45;0.45;;;17.60;99.90;;;;;;5034847;28;20686;-68
2022/06/20 04:38:27;;;;;;;0.40;0.40;;;17.30;99.90;;;;;;5035098;28;20737;-67
2022/06/20 04:41:33;;;;;;;1.20;1.10;;;17.20;99.90;;;;;;5035093;28;20258;-68
2022/06/20 04:44:28;;;;;;;0.40;0.40;;;17.10;99.90;;;;;;5035481;28;20202;-68
2022/06/20 04:47:35;;;;;;;0.43;0.43;;;16.90;99.90;;;;;;5034972;28;20336;-68
2022/06/20 04:50:27;;;;;;;0.40;0.40;;;16.80;99.90;;;;;;5034624;28;20717;-68
2022/06/20 04:53:19;;;;;;;0.50;0.50;;;16.70;99.90;;;;;;5034666;28;20702;-69
2022/06/20 04:56:13;;;;;;;0.88;0.88;;;16.60;99.90;;;;;;5035068;28;20278;-67
2022/06/20 04:59:03;;;;;;;0.50;0.50;;;16.50;99.90;;;;;;5054478;28;20284;-68
2022/06/20 05:01:52;;;;;;;0.40;0.40;;;16.40;99.90;;;;;;5054632;28;20232;-68
2022/06/20 05:04:43;;;;;;;0.75;0.65;;;16.20;99.90;;;;;;5054713;28;20678;-66
2022/06/20 05:07:35;;;;;;;0.40;0.40;;;16.20;99.90;;;;;;5055013;28;20218;-67
2022/06/20 05:10:30;;;;;;;3.80;0.80;;;15.90;99.90;;;;;;5054989;28;20214;-68
2022/06/20 05:13:23;;;;;;;0.40;0.40;;;15.70;99.90;;;;;;5054258;28;20201;-66
2022/06/20 05:16:18;;;;;;;2.83;1.90;;;15.50;99.90;;;;;;5054451;28;20561;-67
2022/06/20 05:19:09;;;;;;;0.43;0.43;;;15.40;99.90;;;;;;5053137;28;20197;-68
2022/06/20 05:22:01;;;;;;;0.50;0.50;;;15.20;99.90;;;;;;5054153;28;20198;-67
2022/06/20 05:24:52;;;;;;;0.70;0.70;;;14.90;99.90;;;;;;5058084;28;20243;-68
2022/06/20 05:27:45;;;;;;;1.00;1.00;;;14.70;99.90;;;;;;5053456;28;20451;-67
2022/06/20 05:30:37;;;;;;;0.50;0.50;;;14.40;99.90;;;;;;5055888;28;20828;-68
2022/06/20 05:33:33;;;;;;;0.70;0.70;;;14.30;99.90;;;;;;5059204;28;20869;-68
2022/06/20 05:36:26;;;;;;;0.60;0.60;;;14.20;99.90;;;;;;5058661;28;20566;-69
2022/06/20 05:39:19;;;;;;;1.73;1.63;;;14.20;99.90;;;;;;5057697;28;20478;-68
2022/06/20 05:42:12;;;;;;;1.23;1.23;;;14.10;99.90;;;;;;5057873;28;20826;-69
2022/06/20 05:45:01;;;;;;;1.47;1.13;;;14.10;99.90;;;;;;5059068;28;20486;-68
2022/06/20 05:47:53;;;;;;;0.50;0.50;;;14.10;99.90;;;;;;5059415;28;20487;-69
2022/06/20 05:50:49;;;;;;;0.50;0.50;;;14.10;99.90;;;;;;5061413;28;20855;-67
2022/06/20 05:53:40;;;;;;;0.40;0.40;;;14.10;99.90;;;;;;5058082;28;20428;-68
2022/06/20 05:56:32;;;;;;;0.40;0.40;;;14.10;99.90;;;;;;5057823;28;20822;-68
2022/06/20 05:59:39;;;;;;;0.50;0.50;;;14.10;99.90;;;;;;5056803;28;20474;-68
2022/06/20 06:02:32;;;;;;;0.40;0.40;;;14.20;99.90;;;;;;5042231;28;20437;-71
2022/06/20 06:05:27;;;;;;;0.40;0.40;;;14.30;99.90;;;;;;5037651;28;20439;-68
2022/06/20 06:08:23;;;;;;;0.47;0.47;;;14.40;99.90;;;;;;5038283;28;20465;-69
2022/06/20 06:11:37;;;;;;;0.50;0.50;;;14.40;99.90;;;;;;5034996;28;20461;-69
2022/06/20 06:14:37;;;;;;;0.40;0.40;;;14.40;99.90;;;;;;5034332;28;20934;-69
2022/06/20 06:17:32;;;;;;;0.40;0.40;;;14.50;99.90;;;;;;5034165;28;20445;-68
2022/06/20 06:20:32;;;;;;;0.40;0.40;;;14.70;99.90;;;;;;5053041;28;20798;-68
2022/06/20 06:23:21;;;;;;;0.40;0.40;;;14.70;99.90;;;;;;5054165;28;20932;-68
2022/06/20 06:26:13;;;;;;;0.40;0.40;;;14.70;99.90;;;;;;5053653;28;20937;-67
2022/06/20 06:29:01;;;;;;;0.40;0.40;;;14.70;99.90;;;;;;5053961;28;20432;-68
2022/06/20 06:31:53;;;;;;;0.40;0.40;;;14.80;99.90;;;;;;5054179;28;20884;-68
2022/06/20 06:34:48;;;;;;;0.40;0.40;;;14.60;99.90;;;;;;5054432;28;20219;-67
2022/06/20 06:37:42;;;;;;;0.50;0.50;;;14.90;99.90;;;;;;5053916;28;20472;-68
2022/06/20 06:40:36;;;;;;;0.40;0.40;;;14.90;99.90;;;;;;5053007;28;20255;-67
2022/06/20 06:43:29;;;;;;;0.40;0.40;;;15.00;99.90;;;;;;5053863;28;20489;-67
2022/06/20 06:46:22;;;;;;;0.40;0.40;;;15.00;99.90;;;;;;5055507;28;20208;-69
2022/06/20 06:49:20;;;;;;;0.50;0.50;;;15.20;99.90;;;;;;5053444;28;20275;-72
2022/06/20 06:52:13;;;;;;;0.40;0.40;;;15.50;99.90;;;;;;5048589;28;20221;-68
2022/06/20 06:55:18;;;;;;;0.50;0.50;;;15.60;99.90;;;;;;5052975;28;20197;-68
2022/06/20 06:58:14;;;;;;;0.50;0.50;;;15.70;99.90;;;;;;5052317;28;20213;-67
2022/06/20 07:01:11;;;;;;;0.40;0.40;;;15.90;99.90;;;;;;5053315;28;20197;-68
2022/06/20 07:04:03;;;;;;;0.40;0.40;;;16.00;99.90;;;;;;5052849;28;20205;-67
2022/06/20 07:06:57;;;;;;;0.50;0.50;;;16.10;99.90;;;;;;5052905;28;20294;-71
2022/06/20 07:09:48;;;;;;;0.50;0.50;;;16.20;99.90;;;;;;5051729;28;20428;-67
2022/06/20 07:12:42;;;;;;;0.40;0.40;;;16.20;99.90;;;;;;5052563;28;20225;-68
2022/06/20 07:15:33;;;;;;;0.40;0.40;;;16.30;99.90;;;;;;5052132;28;20303;-68
2022/06/20 07:18:36;;;;;;;0.50;0.50;;;16.50;99.90;;;;;;5053769;28;20217;-68
2022/06/20 07:21:27;;;;;;;0.40;0.40;;;16.60;99.90;;;;;;5051893;28;20203;-68
2022/06/20 07:24:20;;;;;;;0.40;0.40;;;16.60;99.90;;;;;;5051616;28;20209;-68
2022/06/20 07:27:16;;;;;;;0.50;0.50;;;16.60;99.90;;;;;;5047810;28;20218;-68
2022/06/20 07:30:11;;;;;;;0.50;0.50;;;16.70;99.90;;;;;;5049826;28;20231;-69
2022/06/20 07:33:09;;;;;;;0.40;0.40;;;16.70;99.90;;;;;;5051182;28;20205;-68
2022/06/20 07:36:00;;;;;;;0.40;0.40;;;16.70;99.90;;;;;;5051963;28;20197;-68
2022/06/20 07:38:54;;;;;;;0.50;0.50;;;16.50;99.90;;;;;;5050611;28;20256;-69
2022/06/20 07:41:46;;;;;;;0.40;0.40;;;16.20;99.90;;;;;;5051280;28;20216;-67
2022/06/20 07:44:40;;;;;;;0.50;0.50;;;15.90;99.90;;;;;;5051468;28;20229;-66
2022/06/20 07:47:34;;;;;;;0.40;0.40;;;15.80;99.90;;;;;;5051165;28;20243;-69
2022/06/20 07:50:27;;;;;;;0.40;0.40;;;15.80;99.90;;;;;;5048300;28;20212;-67
2022/06/20 07:53:26;;;;;;;0.40;0.40;;;15.80;99.90;;;;;;5061524;28;20334;-68
2022/06/20 07:56:19;;;;;;;0.50;0.50;;;15.80;99.90;;;;;;5073659;28;20617;-67
2022/06/20 07:59:15;;;;;;;0.43;0.43;;;16.00;99.90;;;;;;5056081;28;20197;-69
2022/06/20 08:02:08;;;;;;;0.40;0.40;;;15.90;99.90;;;;;;5054647;28;20206;-67
2022/06/20 08:04:59;;;;;;;0.40;0.40;;;15.70;99.90;;;;;;5045667;28;20215;-68
2022/06/20 08:07:52;;;;;;;0.50;0.50;;;15.70;99.90;;;;;;5056539;28;20224;-67
2022/06/20 08:10:45;;;;;;;0.40;0.40;;;15.70;99.90;;;;;;5050048;28;20268;-67
2022/06/20 08:13:39;;;;;;;0.40;0.40;;;15.70;99.90;;;;;;5055206;28;20678;-68
2022/06/20 08:16:30;;;;;;;0.50;0.50;;;15.90;99.90;;;;;;5036067;28;20580;-67
2022/06/20 08:19:18;;;;;;;0.50;0.50;;;16.00;99.90;;;;;;5035930;28;20202;-67
2022/06/20 08:22:11;;;;;;;0.40;0.40;;;16.40;99.90;;;;;;5052600;28;20700;-66
2022/06/20 08:25:07;;;;;;;0.40;0.40;;;16.80;99.90;;;;;;5055423;28;20625;-67
2022/06/20 08:27:59;;;;;;;0.40;0.40;;;17.00;99.90;;;;;;5055126;28;20710;-67
2022/06/20 08:30:52;;;;;;;0.40;0.40;;;17.00;99.90;;;;;;5054864;28;20743;-68
2022/06/20 08:33:49;;;;;;;0.40;0.40;;;17.00;99.90;;;;;;5061918;28;20194;-69
2022/06/20 08:36:41;;;;;;;0.63;0.60;;;16.90;99.90;;;;;;5035706;28;20263;-67
2022/06/20 08:39:38;;;;;;;1.25;1.25;;;16.60;99.90;;;;;;5050955;28;20204;-68
2022/06/20 08:42:53;;;;;;;0.40;0.40;;;16.50;99.90;;;;;;5045625;28;20209;-69
2022/06/20 08:46:23;;;;;;;0.50;0.50;;;16.60;99.90;;;;;;5034159;28;20251;-67
2022/06/20 08:49:40;;;;;;;0.45;0.45;;;16.80;99.90;;;;;;5033561;28;20208;-68
2022/06/20 08:52:57;;;;;;;0.50;0.50;;;17.00;99.90;;;;;;5048375;28;20245;-68
2022/06/20 08:56:02;;;;;;;0.40;0.40;;;16.90;99.90;;;;;;5033977;28;20237;-70
2022/06/20 08:59:03;;;;;;;0.40;0.40;;;16.70;99.90;;;;;;5040669;28;20197;-69
2022/06/20 09:02:00;;;;;;;0.82;0.82;;;16.80;99.90;;;;;;5063533;28;20273;-71
2022/06/20 09:05:05;;;;;;;0.50;0.50;;;16.70;99.90;;;;;;5063733;28;20197;-70
2022/06/20 09:08:27;;;;;;;0.70;0.70;;;16.50;99.90;;;;;;5072822;28;20602;-68
2022/06/20 09:11:29;;;;;;;0.40;0.40;;;16.30;99.90;;;;;;5072958;28;20204;-68
2022/06/20 09:14:37;;;;;;;0.40;0.40;;;16.30;99.90;;;;;;5075264;28;20211;-68
2022/06/20 09:17:36;;;;;;;0.50;0.50;;;16.40;99.90;;;;;;5048844;28;20732;-69
2022/06/20 09:20:33;;;;;;;0.40;0.40;;;16.60;99.90;;;;;;5053478;28;20633;-68
2022/06/20 09:23:34;;;;;;;0.60;0.52;;;16.60;99.90;;;;;;5054035;28;20596;-70
2022/06/20 09:26:31;;;;;;;0.40;0.40;;;16.50;99.90;;;;;;5054105;28;20208;-69
2022/06/20 09:29:53;;;;;;;0.50;0.50;;;16.50;99.90;;;;;;5053723;28;20201;-68
2022/06/20 09:33:18;;;;;;;0.68;0.65;;;16.30;99.90;;;;;;5053565;28;20634;-69
2022/06/20 09:36:36;;;;;;;0.40;0.40;;;16.40;99.90;;;;;;5033903;28;20670;-68
2022/06/20 09:39:41;;;;;;;0.47;0.47;;;16.40;99.90;;;;;;5060975;28;20299;-69
2022/06/20 09:42:40;;;;;;;0.40;0.40;;;16.30;99.90;;;;;;5063543;28;20678;-66
2022/06/20 09:45:39;;;;;;;0.40;0.40;;;16.30;99.90;;;;;;5063866;28;20204;-67
2022/06/20 09:48:37;;;;;;;0.50;0.50;;;16.10;99.90;;;;;;5060101;28;20728;-68
2022/06/20 09:51:38;;;;;;;0.40;0.40;;;16.00;99.90;;;;;;5053075;28;20262;-68
2022/06/20 09:54:33;;;;;;;0.40;0.40;;;16.10;99.90;;;;;;5053080;28;20709;-68
2022/06/20 09:57:39;;;;;;;0.40;0.40;;;16.00;99.90;;;;;;5057874;28;20221;-67
2022/06/20 10:00:35;;;;;;;0.40;0.40;;;16.00;99.90;;;;;;5060472;28;20201;-67
2022/06/20 10:03:34;;;;;;;1.02;1.02;;;16.00;99.90;;;;;;5053385;28;20193;-67
2022/06/20 10:06:33;;;;;;;0.40;0.40;;;16.00;99.90;;;;;;5053002;28;20741;-68
2022/06/20 10:09:27;;;;;;;0.50;0.50;;;16.20;99.90;;;;;;5052966;28;20201;-70
2022/06/20 10:12:22;;;;;;;0.40;0.40;;;16.20;99.90;;;;;;5033964;28;20225;-67
2022/06/20 10:15:21;;;;;;;0.40;0.40;;;16.10;99.90;;;;;;5033593;28;20260;-68
2022/06/20 10:18:23;;;;;;;0.40;0.40;;;16.10;99.90;;;;;;5034190;28;20222;-67
2022/06/20 10:21:17;;;;;;;2.40;0.87;;;15.90;99.90;;;;;;5033356;28;20248;-68
2022/06/20 10:24:24;;;;;;;0.40;0.40;;;15.90;99.90;;;;;;5034237;28;20352;-67
2022/06/20 10:27:44;;;;;;;0.60;0.60;;;15.80;99.90;;;;;;5033667;28;20218;-67
2022/06/20 10:30:42;;;;;;;0.60;0.60;;;15.90;99.90;;;;;;5035993;28;20198;-67
2022/06/20 10:33:36;;;;;;;0.50;0.50;;;15.80;99.90;;;;;;5054014;28;20247;-66
2022/06/20 10:36:29;;;;;;;0.50;0.50;;;15.70;99.90;;;;;;5056478;28;20205;-68
2022/06/20 10:39:25;;;;;;;0.50;0.50;;;15.60;99.90;;;;;;5057203;28;20201;-67
2022/06/20 10:42:30;;;;;;;0.50;0.50;;;15.50;99.90;;;;;;5052445;28;20665;-66
2022/06/20 10:45:33;;;;;;;0.50;0.50;;;15.60;99.90;;;;;;5056243;28;20208;-67
2022/06/20 10:48:43;;;;;;;0.50;0.50;;;15.60;99.90;;;;;;5050840;28;20710;-66
2022/06/20 10:51:39;;;;;;;2.30;1.20;;;15.70;99.90;;;;;;5051616;28;20216;-67
2022/06/20 10:54:40;;;;;;;0.50;0.50;;;15.70;99.90;;;;;;5052657;28;20242;-65
2022/06/20 10:57:42;;;;;;;0.50;0.50;;;15.70;99.90;;;;;;5052445;28;20271;-65
2022/06/20 11:00:35;;;;;;;0.50;0.50;;;15.70;99.90;;;;;;5052963;28;20208;-66
2022/06/20 11:03:41;;;;;;;0.70;0.70;;;15.50;99.90;;;;;;5052808;28;20229;-67
2022/06/20 11:06:42;;;;;;;0.47;0.47;;;15.50;99.90;;;;;;5062957;28;20631;-66
2022/06/20 11:09:35;;;;;;;0.80;0.73;;;15.60;99.90;;;;;;5052460;28;20233;-66
2022/06/20 11:12:31;;;;;;;0.50;0.50;;;15.70;99.90;;;;;;5052757;28;20255;-66
2022/06/20 11:15:29;;;;;;;0.40;0.40;;;15.60;99.90;;;;;;5052647;28;20243;-67
2022/06/20 11:18:30;;;;;;;1.13;1.13;;;15.50;99.90;;;;;;5052807;28;20225;-66
2022/06/20 11:21:25;;;;;;;0.50;0.50;;;15.60;99.90;;;;;;5052567;28;20222;-66
2022/06/20 11:24:25;;;;;;;0.47;0.47;;;15.50;99.90;;;;;;5061052;28;20189;-67
2022/06/20 11:27:30;;;;;;;0.40;0.40;;;15.60;99.90;;;;;;5062069;28;20450;-67
2022/06/20 11:30:22;;;;;;;0.77;0.77;;;15.60;99.90;;;;;;5059827;28;20205;-66
2022/06/20 11:36:58;;;;;;;0.40;0.40;;;15.80;99.90;;;;;;5058464;28;20292;-67
2022/06/20 11:40:08;;;;;;;0.40;0.40;;;15.80;99.90;;;;;;5052524;28;20440;-68
2022/06/20 11:43:43;;;;;;;0.40;0.40;;;15.90;99.90;;;;;;5062125;28;20193;-67
2022/06/20 11:46:58;;;;;;;0.50;0.50;;;16.20;99.90;;;;;;5060182;28;20221;-66
2022/06/20 11:50:07;;;;;;;0.40;0.40;;;16.30;99.90;;;;;;5061490;28;20275;-68
2022/06/20 11:53:02;;;;;;;0.43;0.43;;;16.20;99.90;;;;;;5086317;28;20220;-67
2022/06/20 11:55:56;;;;;;;0.40;0.40;;;16.30;99.90;;;;;;5077033;28;20211;-66
2022/06/20 11:59:11;;;;;;;0.40;0.40;;;16.40;99.90;;;;;;5090597;28;20196;-66
2022/06/20 12:02:06;;;;;;;6.15;1.52;;;16.50;99.90;;;;;;5091411;28;20207;-66
2022/06/20 12:05:01;;;;;;;0.47;0.47;;;16.30;99.90;;;;;;5089969;28;20693;-67
2022/06/20 12:08:16;;;;;;;0.40;0.40;;;16.10;99.90;;;;;;5087233;28;20231;-67
2022/06/20 12:11:13;;;;;;;5.68;0.70;;;16.00;99.90;;;;;;5092013;28;20192;-66
2022/06/20 12:14:12;;;;;;;0.50;0.50;;;16.00;99.90;;;;;;5090319;28;20216;-67
2022/06/20 12:17:13;;;;;;;0.40;0.40;;;15.80;99.90;;;;;;5090919;28;20219;-66
2022/06/20 12:23:40;;;;;;;0.40;0.40;;;15.80;99.90;;;;;;5088663;28;20184;-67
2022/06/20 12:26:32;;;;;;;0.50;0.50;;;15.80;99.90;;;;;;5088074;28;20296;-65
2022/06/20 12:29:25;;;;;;;0.60;0.60;;;15.80;99.90;;;;;;5090171;28;20215;-66
2022/06/20 12:32:17;;;;;;;0.40;0.40;;;15.80;99.90;;;;;;5089662;28;20207;-67
2022/06/20 12:35:17;;;;;;;0.40;0.40;;;16.00;99.90;;;;;;5086030;28;20216;-66
2022/06/20 12:38:12;;;;;;;0.60;0.60;;;16.30;99.90;;;;;;5093920;28;20220;-68
2022/06/20 12:41:05;;;;;;;0.40;0.40;;;16.60;99.90;;;;;;5094936;28;20192;-66
2022/06/20 12:44:07;;;;;;;0.45;0.45;;;16.50;99.90;;;;;;5091043;28;20272;-67
2022/06/20 12:47:19;;;;;;;0.40;0.40;;;16.40;99.90;;;;;;5092840;28;20227;-67
2022/06/20 12:50:24;;;;;;;0.40;0.40;;;16.10;99.90;;;;;;5093031;28;20636;-67
2022/06/20 12:53:26;;;;;;;0.40;0.40;;;16.10;99.90;;;;;;5090896;28;20199;-70
2022/06/20 12:56:24;;;;;;;0.40;0.40;;;16.50;99.90;;;;;;5090112;28;20205;-68
2022/06/20 12:59:58;;;;;;;0.50;0.50;;;16.50;99.90;;;;;;5090597;28;20200;-67
2022/06/20 13:03:24;;;;;;;0.40;0.40;;;16.50;99.90;;;;;;5094114;28;20728;-68
2022/06/20 13:06:53;;;;;;;0.40;0.40;;;16.60;99.90;;;;;;5088730;28;20326;-67
2022/06/20 13:10:16;;;;;;;0.40;0.40;;;16.70;99.90;;;;;;5091118;28;20204;-67
2022/06/20 13:13:28;;;;;;;0.50;0.50;;;16.90;99.90;;;;;;5090481;22;20250;-66
2022/06/20 13:16:23;;;;;;;0.40;0.40;;;16.50;99.90;;;;;;5077460;28;20205;-66
2022/06/20 13:19:29;;;;;;;3.67;1.58;;;16.70;99.90;;;;;;5085738;28;20205;-65
2022/06/20 13:22:25;;;;;;;0.45;0.45;;;16.70;99.90;;;;;;5106830;28;20208;-65
2022/06/20 13:25:31;;;;;;;0.40;0.40;;;16.80;99.90;;;;;;5106420;28;20196;-66
2022/06/20 13:28:26;;;;;;;0.70;0.50;;;16.90;99.90;;;;;;5118074;28;20192;-66
2022/06/20 13:31:17;;;;;;;0.40;0.40;;;17.30;99.90;;;;;;5122204;28;20199;-65
2022/06/20 13:34:14;;;;;;;0.50;0.50;;;17.30;99.90;;;;;;5133175;28;20211;-65
2022/06/20 13:37:17;;;;;;;0.50;0.50;;;17.50;99.90;;;;;;5120934;28;20200;-71
2022/06/20 13:40:21;;;;;;;0.40;0.40;;;17.70;99.90;;;;;;5119797;28;20222;-65
2022/06/20 13:43:24;;;;;;;0.40;0.40;;;17.80;99.90;;;;;;5130925;28;20219;-66
2022/06/20 13:46:19;;;;;;;0.50;0.50;;;18.70;99.90;;;;;;5130683;28;20224;-67
2022/06/20 13:49:13;;;;;;;0.40;0.40;;;18.70;99.90;;;;;;5120000;28;20255;-65
2022/06/20 13:52:15;;;;;;;0.40;0.40;;;18.40;99.90;;;;;;5124221;28;20215;-67
2022/06/20 13:55:14;;;;;;;0.40;0.40;;;17.90;99.90;;;;;;5126531;28;20249;-66
2022/06/20 13:58:12;;;;;;;0.40;0.40;;;17.70;99.90;;;;;;5105912;28;20292;-66
2022/06/20 14:01:06;;;;;;;0.40;0.40;;;17.50;99.90;;;;;;5118646;28;20210;-66
2022/06/20 14:03:58;;;;;;;0.40;0.40;;;17.30;99.90;;;;;;5135184;28;20231;-66
2022/06/20 14:06:51;;;;;;;0.40;0.40;;;17.00;99.90;;;;;;5125673;28;20238;-65
2022/06/20 14:09:45;;;;;;;0.40;0.40;;;17.00;99.90;;;;;;5129853;28;20225;-65
2022/06/20 14:12:36;;;;;;;0.40;0.40;;;17.20;99.90;;;;;;5134413;28;20257;-65
2022/06/20 14:15:31;;;;;;;0.40;0.40;;;17.20;99.90;;;;;;5134533;28;20246;-65
2022/06/20 14:18:24;;;;;;;0.52;0.52;;;17.90;99.90;;;;;;5133565;28;20190;-65
2022/06/20 14:21:12;;;;;;;0.40;0.40;;;18.00;99.90;;;;;;5123265;28;20633;-65
2022/06/20 14:24:05;;;;;;;0.40;0.40;;;19.20;99.90;;;;;;5131431;28;20298;-68
2022/06/20 14:26:59;;;;;;;0.40;0.40;;;23.00;99.90;;;;;;5131017;28;20203;-66
2022/06/20 14:30:01;;;;;;;0.50;0.50;;;24.50;99.90;;;;;;5133104;28;20199;-65
2022/06/20 14:32:56;;;;;;;0.55;0.55;;;24.10;99.90;;;;;;5129395;28;20222;-66
2022/06/20 14:35:54;;;;;;;0.95;0.70;;;22.90;99.90;;;;;;5122651;28;20748;-66
2022/06/20 14:38:47;;;;;;;0.40;0.40;;;22.00;99.90;;;;;;5123170;28;20222;-67
2022/06/20 14:41:41;;;;;;;0.40;0.40;;;22.50;99.90;;;;;;5125518;28;20247;-66
2022/06/20 14:44:38;;;;;;;0.50;0.50;;;24.40;99.90;;;;;;5130757;28;20199;-66
2022/06/20 14:47:36;;;;;;;0.52;0.52;;;27.30;99.90;;;;;;5130069;28;20199;-67
2022/06/20 14:50:28;;;;;;;0.40;0.40;;;28.80;99.90;;;;;;5130216;28;20199;-66
2022/06/20 14:53:24;;;;;;;0.40;0.40;;;28.40;99.90;;;;;;5130140;28;20222;-66
2022/06/20 14:56:16;;;;;;;0.50;0.50;;;29.50;99.90;;;;;;5129472;28;20268;-66
2022/06/20 14:59:14;;;;;;;0.40;0.40;;;30.50;95.30;;;;;;5128465;28;20199;-67
2022/06/20 15:02:16;;;;;;;0.40;0.40;;;29.80;94.60;;;;;;5115981;28;20272;-67
2022/06/20 15:05:16;;;;;;;0.40;0.40;;;28.90;96.20;;;;;;5119303;28;20220;-66
2022/06/20 15:08:15;;;;;;;0.50;0.50;;;30.40;95.50;;;;;;5129775;28;20195;-66
2022/06/20 15:11:14;;;;;;;0.40;0.40;;;30.70;88.90;;;;;;5129784;28;20199;-66
2022/06/20 15:14:17;;;;;;;0.40;0.40;;;30.80;90.00;;;;;;5128622;28;20203;-67
2022/06/20 15:17:12;;;;;;;0.57;0.57;;;31.70;84.60;;;;;;5128522;28;20199;-67
2022/06/20 15:20:12;;;;;;;0.40;0.40;;;31.70;82.90;;;;;;5126964;28;20227;-65
2022/06/20 15:23:04;;;;;;;1.10;1.10;;;31.00;84.80;;;;;;5125654;28;20219;-67
2022/06/20 15:25:58;;;;;;;0.43;0.43;;;31.50;83.90;;;;;;5123379;28;20191;-67
2022/06/20 15:28:59;;;;;;;0.52;0.52;;;32.20;78.50;;;;;;5125575;28;20679;-67
2022/06/20 15:31:54;;;;;;;0.70;0.70;;;28.60;84.30;;;;;;5125426;28;20249;-67
2022/06/20 15:34:44;;;;;;;0.40;0.40;;;28.40;85.50;;;;;;5123864;28;20227;-66
2022/06/20 15:37:33;;;;;;;0.40;0.40;;;28.90;85.10;;;;;;5124934;28;20203;-67
2022/06/20 15:40:26;;;;;;;0.68;0.68;;;29.40;83.10;;;;;;5126144;28;20319;-68
2022/06/20 15:43:22;;;;;;;0.40;0.40;;;27.90;84.40;;;;;;5126079;28;20250;-67